Terminal Aerodrome Forecast
Issued by NWS

Home | Current Version | Previous Version | Text Only | Print | Product List | Glossary Off
Versions: 1 2 3 4 5 6 7 8 9 10 11 12 13 14 15 16 17 18

913
FTUS43 KTOP 061720
TAFFOE
TAF
KFOE 061720Z 0618/0718 24009KT P6SM FEW250
     FM071300 30008KT P6SM BKN100
     FM071700 30017G25KT P6SM SCT100=

USA.gov is the U.S. government's official web portal to all federal, state and local government web resources and services.